createdAt,value
2022-10-18T00:04:17.928Z,65.55
2022-10-18T00:09:20.035Z,65.54
2022-10-18T00:14:22.056Z,65.58
2022-10-18T00:19:26.014Z,65.47
2022-10-18T00:24:30.513Z,65.27
2022-10-18T00:29:32.435Z,65.43
2022-10-18T00:34:34.318Z,65.33
2022-10-18T00:39:36.345Z,65.30
2022-10-18T00:44:38.688Z,65.25
2022-10-18T00:49:46.239Z,64.91
2022-10-18T00:54:49.818Z,65.13
2022-10-18T00:59:51.969Z,64.60
2022-10-18T01:04:53.966Z,64.29
2022-10-18T01:10:05.088Z,64.53
2022-10-18T01:15:12.642Z,64.22
2022-10-18T01:20:33.359Z,64.38
2022-10-18T01:25:42.167Z,64.22
2022-10-18T01:31:09.704Z,64.59
2022-10-18T01:36:18.954Z,64.74
2022-10-18T01:41:22.926Z,65.11
2022-10-18T01:46:25.679Z,64.90
2022-10-18T01:51:28.549Z,64.97
2022-10-18T01:56:45.746Z,64.94
2022-10-18T02:02:07.919Z,64.95
2022-10-18T02:07:16.650Z,64.93
2022-10-18T02:12:19.442Z,64.68
2022-10-18T02:17:21.829Z,64.43
2022-10-18T02:22:28.188Z,64.63
2022-10-18T02:27:30.613Z,64.40
2022-10-18T02:32:36.160Z,64.21
2022-10-18T02:37:39.301Z,64.24
2022-10-18T02:42:48.555Z,64.12
2022-10-18T02:47:50.823Z,64.04
2022-10-18T02:52:52.797Z,64.09
2022-10-18T02:57:54.635Z,63.82
2022-10-18T03:02:56.528Z,63.79
2022-10-18T03:07:58.493Z,63.79
2022-10-18T03:13:00.490Z,63.77
2022-10-18T03:18:02.444Z,63.60
2022-10-18T03:23:04.434Z,63.76
2022-10-18T03:28:06.478Z,63.75
2022-10-18T03:33:08.467Z,63.81
2022-10-18T03:38:10.447Z,63.77
2022-10-18T03:43:12.313Z,63.49
2022-10-18T03:48:14.242Z,63.70
2022-10-18T03:53:16.176Z,63.88
2022-10-18T03:58:18.372Z,64.14
2022-10-18T04:03:20.795Z,63.76
2022-10-18T04:08:22.725Z,63.83
2022-10-18T04:13:25.697Z,63.49
2022-10-18T04:18:27.679Z,63.72
2022-10-18T04:23:31.803Z,63.83
2022-10-18T04:28:40.155Z,63.61
2022-10-18T04:33:42.297Z,63.66
2022-10-18T04:38:44.231Z,63.50
2022-10-18T04:48:52.971Z,63.40
2022-10-18T04:53:55.225Z,63.01
2022-10-18T04:58:58.312Z,63.10
2022-10-18T05:04:00.199Z,62.80
2022-10-18T05:09:02.219Z,62.86
2022-10-18T05:14:04.239Z,62.35
2022-10-18T05:19:06.268Z,62.58
2022-10-18T05:24:10.212Z,62.39
2022-10-18T05:29:12.151Z,62.10
2022-10-18T05:34:14.220Z,62.16
2022-10-18T05:39:16.250Z,61.88
2022-10-18T05:44:18.289Z,62.02
2022-10-18T05:49:20.255Z,61.79
2022-10-18T05:54:22.187Z,61.79
2022-10-18T05:59:24.249Z,61.38
2022-10-18T06:04:26.225Z,61.96
2022-10-18T06:09:28.871Z,61.50
2022-10-18T06:14:31.312Z,61.49
2022-10-18T06:19:33.340Z,61.30
2022-10-18T06:24:35.324Z,61.55
2022-10-18T06:29:37.912Z,61.27
2022-10-18T06:34:39.818Z,61.33
2022-10-18T06:39:41.790Z,61.96
2022-10-18T06:44:43.742Z,61.30
2022-10-18T06:49:45.695Z,62.56
2022-10-18T06:54:47.646Z,62.37
2022-10-18T06:59:50.138Z,62.79
2022-10-18T07:04:52.103Z,63.81
2022-10-18T07:09:54.091Z,64.44
2022-10-18T07:14:56.098Z,65.15
2022-10-18T07:19:58.054Z,65.77
2022-10-18T07:24:59.978Z,65.86
2022-10-18T07:30:01.942Z,66.23
2022-10-18T07:35:05.696Z,67.40
2022-10-18T07:40:08.046Z,69.36
2022-10-18T07:45:10.577Z,70.12
2022-10-18T07:50:12.629Z,70.16
2022-10-18T07:55:15.192Z,70.90
2022-10-18T08:00:17.115Z,71.77
2022-10-18T08:05:19.081Z,71.48
2022-10-18T08:10:21.613Z,72.24
2022-10-18T08:15:25.706Z,72.66
2022-10-18T08:20:30.861Z,73.05
2022-10-18T08:25:33.447Z,72.74
2022-10-18T08:30:35.973Z,73.66
2022-10-18T08:35:38.025Z,74.28
2022-10-18T08:40:44.411Z,74.87
2022-10-18T08:45:46.426Z,74.69
2022-10-18T08:50:48.794Z,74.90
2022-10-18T08:55:52.695Z,74.72
2022-10-18T09:01:17.968Z,74.45
2022-10-18T09:06:24.974Z,74.70
2022-10-18T09:11:38.982Z,75.22
2022-10-18T09:16:43.981Z,74.97
2022-10-18T09:21:57.713Z,74.78
2022-10-18T09:27:05.350Z,74.67
2022-10-18T09:32:21.273Z,74.79
2022-10-18T09:37:24.331Z,74.10
2022-10-18T09:42:31.846Z,74.09
2022-10-18T09:47:45.312Z,74.29
2022-10-18T09:52:51.140Z,73.83
2022-10-18T09:57:56.322Z,74.26
2022-10-18T10:03:00.523Z,74.95
2022-10-18T10:08:03.082Z,74.83
2022-10-18T10:13:05.130Z,74.38
2022-10-18T10:18:17.301Z,75.06
2022-10-18T10:23:44.195Z,75.06
2022-10-18T10:28:49.022Z,74.14
2022-10-18T10:34:02.111Z,73.90
2022-10-18T10:39:05.613Z,75.23
2022-10-18T10:44:20.940Z,74.47
2022-10-18T10:49:40.979Z,74.45
2022-10-18T10:54:46.488Z,74.25
2022-10-18T10:59:54.024Z,75.15
2022-10-18T11:04:56.345Z,74.36
2022-10-18T11:10:10.229Z,75.02
2022-10-18T11:15:12.169Z,75.50
2022-10-18T11:20:19.321Z,75.37
2022-10-18T11:25:23.248Z,76.37
2022-10-18T11:30:41.915Z,77.40
2022-10-18T11:35:50.037Z,76.96
2022-10-18T11:40:58.885Z,77.66
2022-10-18T11:46:28.087Z,77.69
2022-10-18T11:52:07.203Z,78.20
2022-10-18T11:57:28.366Z,78.02
2022-10-18T12:02:42.613Z,78.48
2022-10-18T12:07:50.645Z,78.23
2022-10-18T12:12:56.607Z,78.31
2022-10-18T12:18:02.156Z,78.03
2022-10-18T12:23:24.261Z,78.48
2022-10-18T12:28:38.565Z,78.49
2022-10-18T12:33:46.433Z,77.82
2022-10-18T12:38:51.825Z,78.31
2022-10-18T12:43:55.619Z,77.63
2022-10-18T12:49:03.301Z,78.12
2022-10-18T12:54:08.219Z,78.27
2022-10-18T12:59:16.144Z,78.21
2022-10-18T13:04:27.285Z,77.75
2022-10-18T13:09:36.469Z,77.66
2022-10-18T13:14:53.610Z,78.03
2022-10-18T13:20:25.625Z,77.40
2022-10-18T13:25:32.242Z,77.40
2022-10-18T13:30:53.810Z,77.67
2022-10-18T13:35:57.441Z,77.37
2022-10-18T13:41:02.445Z,77.02
2022-10-18T13:46:04.524Z,76.52
2022-10-18T13:51:12.395Z,75.79
2022-10-18T13:56:30.245Z,75.74
2022-10-18T14:01:52.040Z,75.60
2022-10-18T14:07:02.058Z,76.13
2022-10-18T14:12:16.615Z,75.89
2022-10-18T14:17:18.430Z,75.56
2022-10-18T14:22:22.815Z,75.48
2022-10-18T14:27:29.707Z,75.49
2022-10-18T14:32:32.247Z,75.54
2022-10-18T14:37:35.526Z,75.04
2022-10-18T14:42:37.572Z,75.27
2022-10-18T14:47:39.748Z,75.12
2022-10-18T14:52:41.674Z,75.28
2022-10-18T14:57:43.654Z,74.96
2022-10-18T15:02:45.967Z,75.30
2022-10-18T15:07:48.583Z,74.80
2022-10-18T15:13:08.662Z,73.61
2022-10-18T15:18:20.365Z,73.40
2022-10-18T15:23:23.967Z,71.57
2022-10-18T15:28:36.094Z,71.79
2022-10-18T15:33:38.068Z,73.48
2022-10-18T15:38:40.007Z,72.80
2022-10-18T15:43:41.891Z,72.47
2022-10-18T15:48:43.724Z,72.86
2022-10-18T15:53:53.163Z,73.46
2022-10-18T15:58:57.064Z,73.85
2022-10-18T16:04:01.149Z,71.81
2022-10-18T16:09:03.145Z,70.81
2022-10-18T16:14:05.073Z,71.93
2022-10-18T16:19:07.519Z,69.27
2022-10-18T16:24:09.382Z,69.89
2022-10-18T16:29:13.513Z,72.19
2022-10-18T16:34:15.595Z,69.49
2022-10-18T16:39:18.155Z,70.68
2022-10-18T16:44:20.091Z,70.52
2022-10-18T16:49:24.129Z,72.09
2022-10-18T16:54:26.551Z,71.90
2022-10-18T16:59:29.591Z,71.76
2022-10-18T17:04:31.559Z,69.42
2022-10-18T17:09:35.081Z,70.61
2022-10-18T17:14:37.098Z,71.03
2022-10-18T17:19:38.976Z,70.77
2022-10-18T17:24:40.913Z,72.33
2022-10-18T17:29:43.934Z,71.88
2022-10-18T17:34:45.878Z,70.65
2022-10-18T17:39:47.879Z,70.66
2022-10-18T17:44:51.929Z,70.98
2022-10-18T17:49:55.134Z,69.51
2022-10-18T17:54:57.118Z,71.50
2022-10-18T17:59:59.890Z,70.90
2022-10-18T18:05:02.564Z,72.44
2022-10-18T18:10:05.104Z,72.05
2022-10-18T18:15:07.199Z,71.42
2022-10-18T18:20:09.363Z,68.57
2022-10-18T18:25:11.398Z,70.37
2022-10-18T18:30:17.802Z,72.19
2022-10-18T18:35:20.039Z,71.88
2022-10-18T18:40:23.936Z,69.93
2022-10-18T18:45:25.887Z,70.87
2022-10-18T18:50:27.848Z,71.43
2022-10-18T18:55:31.445Z,71.24
2022-10-18T19:00:33.444Z,71.95
2022-10-18T19:05:35.782Z,71.53
2022-10-18T19:10:37.717Z,71.70
2022-10-18T19:15:39.685Z,71.96
2022-10-18T19:20:41.651Z,71.96
2022-10-18T19:25:46.363Z,71.36
2022-10-18T19:30:50.225Z,72.00
2022-10-18T19:35:52.778Z,72.16
2022-10-18T19:40:54.755Z,71.33
2022-10-18T19:45:56.720Z,71.28
2022-10-18T19:51:03.504Z,71.96
2022-10-18T19:56:07.709Z,71.88
2022-10-18T20:01:10.184Z,71.82
2022-10-18T20:06:13.815Z,71.78
2022-10-18T20:11:20.239Z,71.94
2022-10-18T20:16:27.858Z,72.41
2022-10-18T20:21:31.560Z,72.79
2022-10-18T20:26:34.599Z,72.07
2022-10-18T20:31:38.500Z,72.21
2022-10-18T20:36:40.630Z,72.06
2022-10-18T20:41:42.855Z,71.90
2022-10-18T20:46:45.291Z,72.45
2022-10-18T20:51:47.275Z,72.51
2022-10-18T20:56:49.231Z,72.57
2022-10-18T21:01:51.215Z,72.83
2022-10-18T21:06:53.245Z,72.47
2022-10-18T21:11:56.241Z,73.16
2022-10-18T21:16:58.290Z,73.34
2022-10-18T21:22:00.224Z,73.04
2022-10-18T21:27:02.198Z,72.58
2022-10-18T21:32:04.220Z,72.14
2022-10-18T21:37:06.187Z,72.42
2022-10-18T21:42:08.774Z,71.70
2022-10-18T21:47:10.711Z,71.82
2022-10-18T21:52:12.670Z,72.11
2022-10-18T21:57:14.603Z,72.02
2022-10-18T22:02:16.470Z,72.00
2022-10-18T22:07:18.481Z,72.01
2022-10-18T22:12:20.414Z,72.43
2022-10-18T22:17:23.690Z,72.20
2022-10-18T22:22:25.721Z,72.06
2022-10-18T22:27:30.054Z,71.96
2022-10-18T22:32:32.056Z,72.48
2022-10-18T22:37:34.541Z,71.67
2022-10-18T22:42:36.744Z,71.94
2022-10-18T22:47:38.750Z,71.79
2022-10-18T22:52:40.806Z,71.48
2022-10-18T22:57:42.777Z,72.33
2022-10-18T23:02:44.753Z,71.51
2022-10-18T23:07:49.787Z,72.37
2022-10-18T23:12:51.734Z,71.94
2022-10-18T23:17:54.694Z,71.71
2022-10-18T23:22:56.640Z,71.86
2022-10-18T23:27:58.629Z,71.61
2022-10-18T23:33:00.665Z,71.60
2022-10-18T23:38:04.332Z,72.32
2022-10-18T23:43:06.301Z,73.13
2022-10-18T23:48:08.484Z,72.72
2022-10-18T23:53:10.924Z,73.13
2022-10-18T23:58:12.839Z,73.00
